sensor_id;sensor_type;location;lat;lon;timestamp;P1;durP1;ratioP1;P2;durP2;ratioP2
19940;SDS011;10132;50.864;5.176;2023-02-28T00:00:17;6.43;;;4.50;;
19940;SDS011;10132;50.864;5.176;2023-02-28T00:02:19;7.03;;;5.17;;
19940;SDS011;10132;50.864;5.176;2023-02-28T00:04:21;9.83;;;5.40;;
19940;SDS011;10132;50.864;5.176;2023-02-28T00:06:23;7.63;;;4.83;;
19940;SDS011;10132;50.864;5.176;2023-02-28T00:08:26;7.80;;;5.03;;
19940;SDS011;10132;50.864;5.176;2023-02-28T00:10:29;6.73;;;4.47;;
19940;SDS011;10132;50.864;5.176;2023-02-28T00:12:33;7.17;;;4.50;;
19940;SDS011;10132;50.864;5.176;2023-02-28T00:14:36;11.03;;;4.80;;
19940;SDS011;10132;50.864;5.176;2023-02-28T00:16:38;8.87;;;5.20;;
19940;SDS011;10132;50.864;5.176;2023-02-28T00:18:40;8.77;;;5.20;;
19940;SDS011;10132;50.864;5.176;2023-02-28T00:20:42;8.77;;;4.80;;
19940;SDS011;10132;50.864;5.176;2023-02-28T00:22:45;9.80;;;4.70;;
19940;SDS011;10132;50.864;5.176;2023-02-28T00:24:48;7.10;;;4.60;;
19940;SDS011;10132;50.864;5.176;2023-02-28T00:26:50;7.73;;;4.90;;
19940;SDS011;10132;50.864;5.176;2023-02-28T00:28:53;6.80;;;4.00;;
19940;SDS011;10132;50.864;5.176;2023-02-28T00:30:55;8.37;;;4.73;;
19940;SDS011;10132;50.864;5.176;2023-02-28T00:32:57;7.20;;;4.73;;
19940;SDS011;10132;50.864;5.176;2023-02-28T00:34:59;6.53;;;4.20;;
19940;SDS011;10132;50.864;5.176;2023-02-28T00:37:01;6.77;;;4.50;;
19940;SDS011;10132;50.864;5.176;2023-02-28T00:39:03;7.37;;;4.30;;
19940;SDS011;10132;50.864;5.176;2023-02-28T00:41:05;5.80;;;4.33;;
19940;SDS011;10132;50.864;5.176;2023-02-28T00:43:08;6.70;;;4.40;;
19940;SDS011;10132;50.864;5.176;2023-02-28T00:45:11;7.70;;;4.57;;
19940;SDS011;10132;50.864;5.176;2023-02-28T00:47:14;7.77;;;4.60;;
19940;SDS011;10132;50.864;5.176;2023-02-28T00:49:16;8.20;;;4.33;;
19940;SDS011;10132;50.864;5.176;2023-02-28T00:51:18;6.20;;;4.60;;
19940;SDS011;10132;50.864;5.176;2023-02-28T00:53:20;6.20;;;4.47;;
19940;SDS011;10132;50.864;5.176;2023-02-28T00:55:22;6.37;;;4.60;;
19940;SDS011;10132;50.864;5.176;2023-02-28T00:57:24;8.57;;;4.70;;
19940;SDS011;10132;50.864;5.176;2023-02-28T00:59:26;7.30;;;4.53;;
19940;SDS011;10132;50.864;5.176;2023-02-28T01:01:30;9.37;;;5.17;;
19940;SDS011;10132;50.864;5.176;2023-02-28T01:03:32;8.07;;;5.87;;
19940;SDS011;10132;50.864;5.176;2023-02-28T01:05:34;11.33;;;6.93;;
19940;SDS011;10132;50.864;5.176;2023-02-28T01:07:36;10.97;;;6.60;;
19940;SDS011;10132;50.864;5.176;2023-02-28T01:09:38;9.67;;;6.40;;
19940;SDS011;10132;50.864;5.176;2023-02-28T01:11:40;8.37;;;5.70;;
19940;SDS011;10132;50.864;5.176;2023-02-28T01:13:44;9.23;;;5.00;;
19940;SDS011;10132;50.864;5.176;2023-02-28T01:15:49;10.20;;;5.27;;
19940;SDS011;10132;50.864;5.176;2023-02-28T01:17:54;6.57;;;4.37;;
19940;SDS011;10132;50.864;5.176;2023-02-28T01:19:56;8.17;;;4.83;;
19940;SDS011;10132;50.864;5.176;2023-02-28T01:22:00;6.30;;;4.30;;
19940;SDS011;10132;50.864;5.176;2023-02-28T01:24:02;8.07;;;5.40;;
19940;SDS011;10132;50.864;5.176;2023-02-28T01:26:06;8.03;;;4.80;;
19940;SDS011;10132;50.864;5.176;2023-02-28T01:28:09;10.73;;;5.83;;
19940;SDS011;10132;50.864;5.176;2023-02-28T01:30:11;8.20;;;6.20;;
19940;SDS011;10132;50.864;5.176;2023-02-28T01:32:14;8.40;;;6.20;;
19940;SDS011;10132;50.864;5.176;2023-02-28T01:34:17;7.53;;;6.03;;
19940;SDS011;10132;50.864;5.176;2023-02-28T01:36:21;10.80;;;5.87;;
19940;SDS011;10132;50.864;5.176;2023-02-28T01:38:24;7.17;;;5.07;;
19940;SDS011;10132;50.864;5.176;2023-02-28T01:40:26;9.27;;;5.43;;
19940;SDS011;10132;50.864;5.176;2023-02-28T01:42:29;7.07;;;4.27;;
19940;SDS011;10132;50.864;5.176;2023-02-28T01:47:15;8.10;;;4.80;;
19940;SDS011;10132;50.864;5.176;2023-02-28T01:49:19;6.47;;;5.20;;
19940;SDS011;10132;50.864;5.176;2023-02-28T01:51:22;7.57;;;5.60;;
19940;SDS011;10132;50.864;5.176;2023-02-28T01:53:31;8.97;;;6.33;;
19940;SDS011;10132;50.864;5.176;2023-02-28T01:55:36;11.20;;;5.97;;
19940;SDS011;10132;50.864;5.176;2023-02-28T01:57:39;7.93;;;6.20;;
19940;SDS011;10132;50.864;5.176;2023-02-28T01:59:45;10.50;;;6.10;;
19940;SDS011;10132;50.864;5.176;2023-02-28T02:01:53;8.00;;;5.60;;
19940;SDS011;10132;50.864;5.176;2023-02-28T02:03:56;10.47;;;5.80;;
19940;SDS011;10132;50.864;5.176;2023-02-28T02:06:02;9.93;;;5.53;;
19940;SDS011;10132;50.864;5.176;2023-02-28T02:08:05;11.93;;;5.63;;
19940;SDS011;10132;50.864;5.176;2023-02-28T02:10:13;7.83;;;5.63;;
19940;SDS011;10132;50.864;5.176;2023-02-28T02:12:18;9.27;;;5.63;;
19940;SDS011;10132;50.864;5.176;2023-02-28T02:14:32;7.30;;;5.37;;
19940;SDS011;10132;50.864;5.176;2023-02-28T02:16:59;9.27;;;5.27;;
19940;SDS011;10132;50.864;5.176;2023-02-28T02:19:15;7.43;;;4.90;;
19940;SDS011;10132;50.864;5.176;2023-02-28T02:21:53;8.97;;;5.40;;
19940;SDS011;10132;50.864;5.176;2023-02-28T02:26:52;6.17;;;5.10;;
19940;SDS011;10132;50.864;5.176;2023-02-28T02:31:45;9.83;;;5.33;;
19940;SDS011;10132;50.864;5.176;2023-02-28T02:34:25;6.77;;;4.97;;
19940;SDS011;10132;50.864;5.176;2023-02-28T02:36:47;8.30;;;5.27;;
19940;SDS011;10132;50.864;5.176;2023-02-28T02:38:53;6.40;;;4.90;;
19940;SDS011;10132;50.864;5.176;2023-02-28T02:41:03;7.07;;;5.23;;
19940;SDS011;10132;50.864;5.176;2023-02-28T02:43:11;10.57;;;6.03;;
19940;SDS011;10132;50.864;5.176;2023-02-28T02:45:19;6.80;;;5.20;;
19940;SDS011;10132;50.864;5.176;2023-02-28T02:47:27;9.53;;;5.17;;
19940;SDS011;10132;50.864;5.176;2023-02-28T02:49:34;7.13;;;5.07;;
19940;SDS011;10132;50.864;5.176;2023-02-28T02:51:38;8.17;;;5.03;;
19940;SDS011;10132;50.864;5.176;2023-02-28T02:53:42;9.10;;;5.57;;
19940;SDS011;10132;50.864;5.176;2023-02-28T02:55:49;12.63;;;5.50;;
19940;SDS011;10132;50.864;5.176;2023-02-28T02:57:54;6.37;;;4.53;;
19940;SDS011;10132;50.864;5.176;2023-02-28T03:00:02;9.23;;;5.03;;
19940;SDS011;10132;50.864;5.176;2023-02-28T03:02:08;10.90;;;6.10;;
19940;SDS011;10132;50.864;5.176;2023-02-28T03:04:16;8.93;;;5.60;;
19940;SDS011;10132;50.864;5.176;2023-02-28T03:06:21;9.47;;;5.50;;
19940;SDS011;10132;50.864;5.176;2023-02-28T03:08:24;8.67;;;6.00;;
19940;SDS011;10132;50.864;5.176;2023-02-28T03:10:31;9.87;;;6.00;;
19940;SDS011;10132;50.864;5.176;2023-02-28T03:12:48;10.13;;;5.87;;
19940;SDS011;10132;50.864;5.176;2023-02-28T03:15:02;11.43;;;6.37;;
19940;SDS011;10132;50.864;5.176;2023-02-28T03:17:29;9.53;;;6.50;;
19940;SDS011;10132;50.864;5.176;2023-02-28T03:19:44;11.40;;;6.17;;
19940;SDS011;10132;50.864;5.176;2023-02-28T03:21:57;8.13;;;6.17;;
19940;SDS011;10132;50.864;5.176;2023-02-28T03:24:15;8.93;;;6.47;;
19940;SDS011;10132;50.864;5.176;2023-02-28T03:26:23;12.20;;;6.47;;
19940;SDS011;10132;50.864;5.176;2023-02-28T03:28:30;8.30;;;6.20;;
19940;SDS011;10132;50.864;5.176;2023-02-28T03:30:41;9.60;;;6.07;;
19940;SDS011;10132;50.864;5.176;2023-02-28T03:32:54;8.30;;;6.00;;
19940;SDS011;10132;50.864;5.176;2023-02-28T03:35:05;7.73;;;5.37;;
19940;SDS011;10132;50.864;5.176;2023-02-28T03:37:15;10.33;;;6.27;;
19940;SDS011;10132;50.864;5.176;2023-02-28T03:39:20;11.37;;;6.77;;
19940;SDS011;10132;50.864;5.176;2023-02-28T03:41:26;9.43;;;5.90;;
19940;SDS011;10132;50.864;5.176;2023-02-28T03:43:33;9.70;;;5.90;;
19940;SDS011;10132;50.864;5.176;2023-02-28T03:45:39;9.97;;;6.63;;
19940;SDS011;10132;50.864;5.176;2023-02-28T03:47:45;8.53;;;6.77;;
19940;SDS011;10132;50.864;5.176;2023-02-28T03:49:53;7.67;;;6.10;;
19940;SDS011;10132;50.864;5.176;2023-02-28T03:51:59;7.20;;;6.03;;
19940;SDS011;10132;50.864;5.176;2023-02-28T03:54:06;11.87;;;6.93;;
19940;SDS011;10132;50.864;5.176;2023-02-28T03:56:13;9.47;;;6.63;;
19940;SDS011;10132;50.864;5.176;2023-02-28T03:58:20;9.43;;;6.90;;
19940;SDS011;10132;50.864;5.176;2023-02-28T04:00:30;9.07;;;6.43;;
19940;SDS011;10132;50.864;5.176;2023-02-28T04:02:35;9.77;;;6.57;;
19940;SDS011;10132;50.864;5.176;2023-02-28T04:04:37;8.37;;;5.93;;
19940;SDS011;10132;50.864;5.176;2023-02-28T04:06:49;10.40;;;7.03;;
19940;SDS011;10132;50.864;5.176;2023-02-28T04:08:51;9.30;;;6.53;;
19940;SDS011;10132;50.864;5.176;2023-02-28T04:10:56;11.60;;;6.70;;
19940;SDS011;10132;50.864;5.176;2023-02-28T04:13:02;10.43;;;6.87;;
19940;SDS011;10132;50.864;5.176;2023-02-28T04:15:05;9.67;;;6.30;;
19940;SDS011;10132;50.864;5.176;2023-02-28T04:17:08;8.93;;;6.33;;
19940;SDS011;10132;50.864;5.176;2023-02-28T04:19:10;9.80;;;6.60;;
19940;SDS011;10132;50.864;5.176;2023-02-28T04:21:13;8.47;;;6.50;;
19940;SDS011;10132;50.864;5.176;2023-02-28T04:23:15;8.23;;;6.13;;
19940;SDS011;10132;50.864;5.176;2023-02-28T04:25:17;11.73;;;8.30;;
19940;SDS011;10132;50.864;5.176;2023-02-28T04:27:21;10.40;;;7.43;;
19940;SDS011;10132;50.864;5.176;2023-02-28T04:29:24;9.10;;;6.50;;
19940;SDS011;10132;50.864;5.176;2023-02-28T04:31:27;9.03;;;6.57;;
19940;SDS011;10132;50.864;5.176;2023-02-28T04:33:30;9.67;;;6.07;;
19940;SDS011;10132;50.864;5.176;2023-02-28T04:35:33;16.37;;;6.80;;
19940;SDS011;10132;50.864;5.176;2023-02-28T04:37:35;9.63;;;6.57;;
19940;SDS011;10132;50.864;5.176;2023-02-28T04:39:37;9.80;;;6.40;;
19940;SDS011;10132;50.864;5.176;2023-02-28T04:41:39;10.00;;;6.33;;
19940;SDS011;10132;50.864;5.176;2023-02-28T04:43:43;12.77;;;6.20;;
19940;SDS011;10132;50.864;5.176;2023-02-28T04:45:45;9.77;;;6.37;;
19940;SDS011;10132;50.864;5.176;2023-02-28T04:47:46;12.00;;;6.70;;
19940;SDS011;10132;50.864;5.176;2023-02-28T04:49:49;8.60;;;6.67;;
19940;SDS011;10132;50.864;5.176;2023-02-28T04:51:50;8.63;;;6.67;;
19940;SDS011;10132;50.864;5.176;2023-02-28T04:53:52;12.63;;;6.70;;
19940;SDS011;10132;50.864;5.176;2023-02-28T04:55:55;10.63;;;6.30;;
19940;SDS011;10132;50.864;5.176;2023-02-28T04:57:57;10.93;;;6.67;;
19940;SDS011;10132;50.864;5.176;2023-02-28T05:00:00;11.57;;;7.10;;
19940;SDS011;10132;50.864;5.176;2023-02-28T05:02:05;11.53;;;6.90;;
19940;SDS011;10132;50.864;5.176;2023-02-28T05:04:08;9.27;;;5.90;;
19940;SDS011;10132;50.864;5.176;2023-02-28T05:06:11;10.20;;;6.70;;
19940;SDS011;10132;50.864;5.176;2023-02-28T05:08:14;11.83;;;5.97;;
19940;SDS011;10132;50.864;5.176;2023-02-28T05:10:16;9.00;;;5.80;;
19940;SDS011;10132;50.864;5.176;2023-02-28T05:12:18;11.07;;;6.43;;
19940;SDS011;10132;50.864;5.176;2023-02-28T05:14:20;10.27;;;6.73;;
19940;SDS011;10132;50.864;5.176;2023-02-28T05:16:25;8.97;;;6.50;;
19940;SDS011;10132;50.864;5.176;2023-02-28T05:18:27;9.40;;;7.13;;
19940;SDS011;10132;50.864;5.176;2023-02-28T05:20:29;8.87;;;6.23;;
19940;SDS011;10132;50.864;5.176;2023-02-28T05:22:31;9.17;;;6.47;;
19940;SDS011;10132;50.864;5.176;2023-02-28T05:24:33;10.30;;;6.93;;
19940;SDS011;10132;50.864;5.176;2023-02-28T05:26:35;9.03;;;7.00;;
19940;SDS011;10132;50.864;5.176;2023-02-28T05:28:38;11.73;;;7.13;;
19940;SDS011;10132;50.864;5.176;2023-02-28T05:30:40;14.37;;;7.00;;
19940;SDS011;10132;50.864;5.176;2023-02-28T05:32:43;12.77;;;7.83;;
19940;SDS011;10132;50.864;5.176;2023-02-28T05:34:50;13.40;;;8.73;;
19940;SDS011;10132;50.864;5.176;2023-02-28T05:36:52;11.73;;;7.57;;
19940;SDS011;10132;50.864;5.176;2023-02-28T05:38:54;13.00;;;7.40;;
19940;SDS011;10132;50.864;5.176;2023-02-28T05:40:56;13.50;;;8.00;;
19940;SDS011;10132;50.864;5.176;2023-02-28T05:42:58;10.30;;;6.87;;
19940;SDS011;10132;50.864;5.176;2023-02-28T05:45:00;8.60;;;6.40;;
19940;SDS011;10132;50.864;5.176;2023-02-28T05:47:03;11.17;;;7.07;;
19940;SDS011;10132;50.864;5.176;2023-02-28T05:49:06;8.03;;;6.03;;
19940;SDS011;10132;50.864;5.176;2023-02-28T05:51:08;12.47;;;7.60;;
19940;SDS011;10132;50.864;5.176;2023-02-28T05:53:11;11.50;;;7.07;;
19940;SDS011;10132;50.864;5.176;2023-02-28T05:55:13;9.07;;;7.07;;
19940;SDS011;10132;50.864;5.176;2023-02-28T05:57:15;11.03;;;7.17;;
19940;SDS011;10132;50.864;5.176;2023-02-28T05:59:17;11.13;;;7.30;;
19940;SDS011;10132;50.864;5.176;2023-02-28T06:01:20;9.97;;;7.20;;
19940;SDS011;10132;50.864;5.176;2023-02-28T06:03:31;14.87;;;7.10;;
19940;SDS011;10132;50.864;5.176;2023-02-28T06:05:35;9.40;;;6.57;;
19940;SDS011;10132;50.864;5.176;2023-02-28T06:07:38;10.53;;;7.33;;
19940;SDS011;10132;50.864;5.176;2023-02-28T06:09:40;10.20;;;7.27;;
19940;SDS011;10132;50.864;5.176;2023-02-28T06:11:42;11.10;;;7.30;;
19940;SDS011;10132;50.864;5.176;2023-02-28T06:13:44;15.83;;;7.77;;
19940;SDS011;10132;50.864;5.176;2023-02-28T06:15:46;12.83;;;7.43;;
19940;SDS011;10132;50.864;5.176;2023-02-28T06:17:48;12.77;;;7.40;;
19940;SDS011;10132;50.864;5.176;2023-02-28T06:19:50;11.00;;;7.50;;
19940;SDS011;10132;50.864;5.176;2023-02-28T06:21:54;10.77;;;8.10;;
19940;SDS011;10132;50.864;5.176;2023-02-28T06:23:57;10.53;;;6.73;;
19940;SDS011;10132;50.864;5.176;2023-02-28T06:26:00;11.00;;;7.83;;
19940;SDS011;10132;50.864;5.176;2023-02-28T06:28:02;11.20;;;8.63;;
19940;SDS011;10132;50.864;5.176;2023-02-28T06:30:04;12.00;;;7.90;;
19940;SDS011;10132;50.864;5.176;2023-02-28T06:32:07;16.30;;;7.70;;
19940;SDS011;10132;50.864;5.176;2023-02-28T06:34:09;25.37;;;12.93;;
19940;SDS011;10132;50.864;5.176;2023-02-28T06:36:12;15.57;;;10.10;;
19940;SDS011;10132;50.864;5.176;2023-02-28T06:38:17;13.53;;;8.67;;
19940;SDS011;10132;50.864;5.176;2023-02-28T06:40:19;12.43;;;9.13;;
19940;SDS011;10132;50.864;5.176;2023-02-28T06:42:21;10.93;;;8.70;;
19940;SDS011;10132;50.864;5.176;2023-02-28T06:44:24;11.70;;;7.43;;
19940;SDS011;10132;50.864;5.176;2023-02-28T06:46:26;12.23;;;7.90;;
19940;SDS011;10132;50.864;5.176;2023-02-28T06:48:28;11.43;;;7.70;;
19940;SDS011;10132;50.864;5.176;2023-02-28T06:50:30;11.83;;;7.13;;
19940;SDS011;10132;50.864;5.176;2023-02-28T06:52:33;12.13;;;6.93;;
19940;SDS011;10132;50.864;5.176;2023-02-28T06:54:38;17.20;;;7.70;;
19940;SDS011;10132;50.864;5.176;2023-02-28T06:56:41;9.10;;;6.37;;
19940;SDS011;10132;50.864;5.176;2023-02-28T06:58:45;10.17;;;6.87;;
19940;SDS011;10132;50.864;5.176;2023-02-28T07:00:50;10.60;;;7.13;;
19940;SDS011;10132;50.864;5.176;2023-02-28T07:02:52;10.43;;;6.73;;
19940;SDS011;10132;50.864;5.176;2023-02-28T07:04:55;11.00;;;6.67;;
19940;SDS011;10132;50.864;5.176;2023-02-28T07:06:57;6.93;;;5.93;;
19940;SDS011;10132;50.864;5.176;2023-02-28T07:08:59;10.50;;;6.80;;
19940;SDS011;10132;50.864;5.176;2023-02-28T07:11:03;10.97;;;7.13;;
19940;SDS011;10132;50.864;5.176;2023-02-28T07:13:05;9.83;;;6.90;;
19940;SDS011;10132;50.864;5.176;2023-02-28T07:15:09;9.93;;;7.00;;
19940;SDS011;10132;50.864;5.176;2023-02-28T07:17:11;13.23;;;7.43;;
19940;SDS011;10132;50.864;5.176;2023-02-28T07:19:13;7.80;;;6.57;;
19940;SDS011;10132;50.864;5.176;2023-02-28T07:21:15;8.97;;;6.90;;
19940;SDS011;10132;50.864;5.176;2023-02-28T07:23:17;10.53;;;7.13;;
19940;SDS011;10132;50.864;5.176;2023-02-28T07:25:20;9.43;;;6.60;;
19940;SDS011;10132;50.864;5.176;2023-02-28T07:27:23;10.00;;;6.27;;
19940;SDS011;10132;50.864;5.176;2023-02-28T07:29:25;8.93;;;6.60;;
19940;SDS011;10132;50.864;5.176;2023-02-28T07:31:27;10.13;;;6.33;;
19940;SDS011;10132;50.864;5.176;2023-02-28T07:33:29;10.93;;;6.67;;
19940;SDS011;10132;50.864;5.176;2023-02-28T07:35:31;11.10;;;6.20;;
19940;SDS011;10132;50.864;5.176;2023-02-28T07:37:33;13.67;;;7.07;;
19940;SDS011;10132;50.864;5.176;2023-02-28T07:39:36;11.33;;;6.50;;
19940;SDS011;10132;50.864;5.176;2023-02-28T07:41:38;11.40;;;7.17;;
19940;SDS011;10132;50.864;5.176;2023-02-28T07:43:44;9.97;;;7.03;;
19940;SDS011;10132;50.864;5.176;2023-02-28T07:45:47;10.33;;;5.83;;
19940;SDS011;10132;50.864;5.176;2023-02-28T07:47:49;9.07;;;5.90;;
19940;SDS011;10132;50.864;5.176;2023-02-28T07:49:51;9.07;;;6.33;;
19940;SDS011;10132;50.864;5.176;2023-02-28T07:51:53;12.37;;;5.80;;
19940;SDS011;10132;50.864;5.176;2023-02-28T07:53:55;5.73;;;5.13;;
19940;SDS011;10132;50.864;5.176;2023-02-28T07:55:57;9.23;;;5.70;;
19940;SDS011;10132;50.864;5.176;2023-02-28T07:58:00;8.50;;;5.87;;
19940;SDS011;10132;50.864;5.176;2023-02-28T08:00:05;8.73;;;5.40;;
19940;SDS011;10132;50.864;5.176;2023-02-28T08:02:09;8.37;;;5.17;;
19940;SDS011;10132;50.864;5.176;2023-02-28T08:04:14;9.57;;;5.83;;
19940;SDS011;10132;50.864;5.176;2023-02-28T08:06:17;9.80;;;4.83;;
19940;SDS011;10132;50.864;5.176;2023-02-28T08:08:21;14.77;;;5.97;;
19940;SDS011;10132;50.864;5.176;2023-02-28T08:10:23;7.43;;;5.20;;
19940;SDS011;10132;50.864;5.176;2023-02-28T08:12:25;7.63;;;5.00;;
19940;SDS011;10132;50.864;5.176;2023-02-28T08:14:27;8.13;;;5.00;;
19940;SDS011;10132;50.864;5.176;2023-02-28T08:16:31;9.33;;;5.30;;
19940;SDS011;10132;50.864;5.176;2023-02-28T08:18:33;6.83;;;4.83;;
19940;SDS011;10132;50.864;5.176;2023-02-28T08:20:35;7.13;;;4.73;;
19940;SDS011;10132;50.864;5.176;2023-02-28T08:22:37;7.73;;;4.70;;
19940;SDS011;10132;50.864;5.176;2023-02-28T08:24:40;7.47;;;4.80;;
19940;SDS011;10132;50.864;5.176;2023-02-28T08:26:43;8.03;;;4.77;;
19940;SDS011;10132;50.864;5.176;2023-02-28T08:28:45;6.13;;;4.97;;
19940;SDS011;10132;50.864;5.176;2023-02-28T08:30:47;8.60;;;4.70;;
19940;SDS011;10132;50.864;5.176;2023-02-28T08:32:51;8.80;;;4.80;;
19940;SDS011;10132;50.864;5.176;2023-02-28T08:34:53;6.80;;;4.77;;
19940;SDS011;10132;50.864;5.176;2023-02-28T08:36:55;6.10;;;4.47;;
19940;SDS011;10132;50.864;5.176;2023-02-28T08:38:57;8.77;;;4.37;;
19940;SDS011;10132;50.864;5.176;2023-02-28T08:40:59;7.47;;;4.67;;
19940;SDS011;10132;50.864;5.176;2023-02-28T08:43:02;6.93;;;3.93;;
19940;SDS011;10132;50.864;5.176;2023-02-28T08:45:05;5.03;;;4.07;;
19940;SDS011;10132;50.864;5.176;2023-02-28T08:47:07;6.97;;;5.10;;
19940;SDS011;10132;50.864;5.176;2023-02-28T08:49:11;5.07;;;3.97;;
19940;SDS011;10132;50.864;5.176;2023-02-28T08:51:14;9.83;;;4.23;;
19940;SDS011;10132;50.864;5.176;2023-02-28T08:53:18;6.17;;;3.87;;
19940;SDS011;10132;50.864;5.176;2023-02-28T08:55:20;6.33;;;4.33;;
19940;SDS011;10132;50.864;5.176;2023-02-28T08:57:22;6.17;;;4.07;;
19940;SDS011;10132;50.864;5.176;2023-02-28T08:59:26;7.33;;;4.10;;
19940;SDS011;10132;50.864;5.176;2023-02-28T09:01:29;5.90;;;4.60;;
19940;SDS011;10132;50.864;5.176;2023-02-28T09:03:31;5.57;;;3.73;;
19940;SDS011;10132;50.864;5.176;2023-02-28T09:05:35;5.20;;;3.83;;
19940;SDS011;10132;50.864;5.176;2023-02-28T09:07:37;5.23;;;3.97;;
19940;SDS011;10132;50.864;5.176;2023-02-28T09:09:39;4.87;;;3.63;;
19940;SDS011;10132;50.864;5.176;2023-02-28T09:11:54;5.53;;;3.93;;
19940;SDS011;10132;50.864;5.176;2023-02-28T09:13:57;5.40;;;3.60;;
19940;SDS011;10132;50.864;5.176;2023-02-28T09:16:00;6.47;;;3.73;;
19940;SDS011;10132;50.864;5.176;2023-02-28T09:18:03;5.77;;;4.13;;
19940;SDS011;10132;50.864;5.176;2023-02-28T09:20:06;5.70;;;3.60;;
19940;SDS011;10132;50.864;5.176;2023-02-28T09:22:10;4.73;;;3.97;;
19940;SDS011;10132;50.864;5.176;2023-02-28T09:24:12;6.53;;;3.43;;
19940;SDS011;10132;50.864;5.176;2023-02-28T09:26:15;4.67;;;2.97;;
19940;SDS011;10132;50.864;5.176;2023-02-28T09:28:20;4.87;;;3.30;;
19940;SDS011;10132;50.864;5.176;2023-02-28T09:30:22;5.00;;;3.00;;
19940;SDS011;10132;50.864;5.176;2023-02-28T09:32:24;8.43;;;5.20;;
19940;SDS011;10132;50.864;5.176;2023-02-28T09:34:26;6.70;;;5.10;;
19940;SDS011;10132;50.864;5.176;2023-02-28T09:36:30;7.77;;;5.97;;
19940;SDS011;10132;50.864;5.176;2023-02-28T09:38:34;6.10;;;3.70;;
19940;SDS011;10132;50.864;5.176;2023-02-28T09:40:37;9.97;;;4.43;;
19940;SDS011;10132;50.864;5.176;2023-02-28T09:42:44;5.33;;;3.70;;
19940;SDS011;10132;50.864;5.176;2023-02-28T09:44:48;5.33;;;2.90;;
19940;SDS011;10132;50.864;5.176;2023-02-28T09:46:54;4.90;;;3.27;;
19940;SDS011;10132;50.864;5.176;2023-02-28T09:49:00;4.43;;;3.20;;
19940;SDS011;10132;50.864;5.176;2023-02-28T09:51:09;4.23;;;3.00;;
19940;SDS011;10132;50.864;5.176;2023-02-28T09:53:19;6.73;;;2.70;;
19940;SDS011;10132;50.864;5.176;2023-02-28T09:55:30;5.80;;;3.00;;
19940;SDS011;10132;50.864;5.176;2023-02-28T09:57:38;4.27;;;2.77;;
19940;SDS011;10132;50.864;5.176;2023-02-28T09:59:46;4.60;;;3.57;;
19940;SDS011;10132;50.864;5.176;2023-02-28T10:01:54;7.30;;;5.10;;
19940;SDS011;10132;50.864;5.176;2023-02-28T10:04:03;14.50;;;10.40;;
19940;SDS011;10132;50.864;5.176;2023-02-28T10:06:14;4.60;;;2.63;;
19940;SDS011;10132;50.864;5.176;2023-02-28T10:08:21;24.93;;;17.90;;
19940;SDS011;10132;50.864;5.176;2023-02-28T10:10:28;24.93;;;15.67;;
19940;SDS011;10132;50.864;5.176;2023-02-28T10:12:34;7.90;;;4.40;;
19940;SDS011;10132;50.864;5.176;2023-02-28T10:14:43;5.30;;;4.80;;
19940;SDS011;10132;50.864;5.176;2023-02-28T10:16:47;6.80;;;2.87;;
19940;SDS011;10132;50.864;5.176;2023-02-28T10:18:56;5.67;;;2.63;;
19940;SDS011;10132;50.864;5.176;2023-02-28T10:21:02;4.70;;;2.90;;
19940;SDS011;10132;50.864;5.176;2023-02-28T10:23:07;2.93;;;2.20;;
19940;SDS011;10132;50.864;5.176;2023-02-28T10:25:16;4.00;;;2.20;;
19940;SDS011;10132;50.864;5.176;2023-02-28T10:27:22;2.53;;;2.10;;
19940;SDS011;10132;50.864;5.176;2023-02-28T10:29:27;4.60;;;2.30;;
19940;SDS011;10132;50.864;5.176;2023-02-28T10:31:32;3.57;;;2.50;;
19940;SDS011;10132;50.864;5.176;2023-02-28T10:33:35;7.50;;;3.67;;
19940;SDS011;10132;50.864;5.176;2023-02-28T10:35:37;2.83;;;2.23;;
19940;SDS011;10132;50.864;5.176;2023-02-28T10:37:39;2.87;;;2.10;;
19940;SDS011;10132;50.864;5.176;2023-02-28T10:39:43;9.23;;;3.03;;
19940;SDS011;10132;50.864;5.176;2023-02-28T10:41:46;4.00;;;2.10;;
19940;SDS011;10132;50.864;5.176;2023-02-28T10:43:49;2.00;;;1.77;;
19940;SDS011;10132;50.864;5.176;2023-02-28T10:45:58;4.40;;;3.53;;
19940;SDS011;10132;50.864;5.176;2023-02-28T10:48:03;4.73;;;3.63;;
19940;SDS011;10132;50.864;5.176;2023-02-28T10:50:11;3.90;;;1.83;;
19940;SDS011;10132;50.864;5.176;2023-02-28T10:52:32;2.10;;;1.70;;
19940;SDS011;10132;50.864;5.176;2023-02-28T10:54:36;4.30;;;1.73;;
19940;SDS011;10132;50.864;5.176;2023-02-28T10:56:38;6.47;;;2.20;;
19940;SDS011;10132;50.864;5.176;2023-02-28T10:58:55;5.80;;;3.07;;
19940;SDS011;10132;50.864;5.176;2023-02-28T11:00:58;3.53;;;3.23;;
19940;SDS011;10132;50.864;5.176;2023-02-28T11:03:00;4.93;;;2.23;;
19940;SDS011;10132;50.864;5.176;2023-02-28T11:05:02;3.60;;;2.60;;
19940;SDS011;10132;50.864;5.176;2023-02-28T11:07:25;3.83;;;1.80;;
19940;SDS011;10132;50.864;5.176;2023-02-28T11:09:31;1.97;;;1.60;;
19940;SDS011;10132;50.864;5.176;2023-02-28T11:11:41;9.00;;;3.10;;
19940;SDS011;10132;50.864;5.176;2023-02-28T11:13:45;3.53;;;1.90;;
19940;SDS011;10132;50.864;5.176;2023-02-28T11:15:52;2.63;;;1.97;;
19940;SDS011;10132;50.864;5.176;2023-02-28T11:17:56;4.43;;;1.70;;
19940;SDS011;10132;50.864;5.176;2023-02-28T11:20:01;2.37;;;1.63;;
19940;SDS011;10132;50.864;5.176;2023-02-28T11:22:07;9.83;;;2.17;;
19940;SDS011;10132;50.864;5.176;2023-02-28T11:24:13;5.33;;;2.23;;
19940;SDS011;10132;50.864;5.176;2023-02-28T11:26:40;10.00;;;2.50;;
19940;SDS011;10132;50.864;5.176;2023-02-28T11:28:43;5.63;;;2.00;;
19940;SDS011;10132;50.864;5.176;2023-02-28T11:30:45;7.10;;;2.30;;
19940;SDS011;10132;50.864;5.176;2023-02-28T11:35:30;3.30;;;1.93;;
19940;SDS011;10132;50.864;5.176;2023-02-28T11:37:35;2.67;;;1.83;;
19940;SDS011;10132;50.864;5.176;2023-02-28T11:39:37;3.97;;;2.40;;
19940;SDS011;10132;50.864;5.176;2023-02-28T11:41:45;3.70;;;1.93;;
19940;SDS011;10132;50.864;5.176;2023-02-28T11:44:06;1.90;;;1.57;;
19940;SDS011;10132;50.864;5.176;2023-02-28T11:46:20;4.30;;;2.10;;
19940;SDS011;10132;50.864;5.176;2023-02-28T11:48:33;3.27;;;2.00;;
19940;SDS011;10132;50.864;5.176;2023-02-28T11:50:47;3.03;;;1.60;;
19940;SDS011;10132;50.864;5.176;2023-02-28T11:52:56;1.70;;;1.53;;
19940;SDS011;10132;50.864;5.176;2023-02-28T11:55:05;3.50;;;2.10;;
19940;SDS011;10132;50.864;5.176;2023-02-28T11:57:21;5.37;;;2.00;;
19940;SDS011;10132;50.864;5.176;2023-02-28T11:59:36;2.33;;;1.87;;
19940;SDS011;10132;50.864;5.176;2023-02-28T12:01:51;2.47;;;1.60;;
19940;SDS011;10132;50.864;5.176;2023-02-28T12:04:20;3.67;;;1.97;;
19940;SDS011;10132;50.864;5.176;2023-02-28T12:06:28;4.17;;;2.07;;
19940;SDS011;10132;50.864;5.176;2023-02-28T12:08:41;4.13;;;1.97;;
19940;SDS011;10132;50.864;5.176;2023-02-28T12:10:52;4.90;;;1.60;;
19940;SDS011;10132;50.864;5.176;2023-02-28T12:13:09;2.83;;;2.00;;
19940;SDS011;10132;50.864;5.176;2023-02-28T12:15:23;4.30;;;1.47;;
19940;SDS011;10132;50.864;5.176;2023-02-28T12:17:38;2.00;;;1.50;;
19940;SDS011;10132;50.864;5.176;2023-02-28T12:19:54;5.73;;;2.00;;
19940;SDS011;10132;50.864;5.176;2023-02-28T12:24:50;2.17;;;1.40;;
19940;SDS011;10132;50.864;5.176;2023-02-28T12:27:03;3.67;;;1.80;;
19940;SDS011;10132;50.864;5.176;2023-02-28T12:29:10;2.23;;;1.80;;
19940;SDS011;10132;50.864;5.176;2023-02-28T12:31:19;3.20;;;1.83;;
19940;SDS011;10132;50.864;5.176;2023-02-28T12:33:24;3.13;;;1.60;;
19940;SDS011;10132;50.864;5.176;2023-02-28T12:35:34;2.53;;;1.53;;
19940;SDS011;10132;50.864;5.176;2023-02-28T12:37:40;6.13;;;4.17;;
19940;SDS011;10132;50.864;5.176;2023-02-28T12:39:46;4.37;;;3.13;;
19940;SDS011;10132;50.864;5.176;2023-02-28T12:41:53;3.20;;;1.53;;
19940;SDS011;10132;50.864;5.176;2023-02-28T12:44:01;2.10;;;1.63;;